KYIP/YIP METAR and TAF weather

Enter ICAO airport designator
Station Type Date Time Source
KYIP METAR 2020/01/23 20:53 UTC NOAA

KYIP 232053Z 13005KT 10SM FEW075 BKN100 OVC110 03/M03 A3017 RMK AO2 SLP220 T00331033 55005


Station Type Date Time Source
KYIP Decoded METAR 2020/01/23 20:53 UTC NOAA

WILLOW RUN AIRPORT, MI, United States (KYIP) 42-14N 083-32W 215M
Jan 23, 2020 - 03:53 PM EST / 2020.01.23 2053 UTC
Wind: from the SE (130 degrees) at 6 MPH (5 KT):0
Visibility: 10 mile(s):0
Sky conditions: overcast
Temperature: 37.9 F (3.3 C)
Dew Point: 26.1 F (-3.3 C)
Relative Humidity: 61%
Pressure (altimeter): 30.17 in. Hg (1021 hPa)
Pressure tendency: 0.01 inches (0.5 hPa) lower than three hours ago
ob: KYIP 232053Z 13005KT 10SM FEW075 BKN100 OVC110 03/M03 A3017 RMK AO2 SLP220 T00331033 55005
cycle: 21

Station Type Date Time Source
KYIP TAF 2020/01/23 18:27 UTC NOAA

TAF KYIP 231725Z 2318/2418 16007KT P6SM OVC120
FM240000 12005KT P6SM OVC080
FM240700 09005KT P6SM OVC050
TEMPO 2408/2412 P6SM -SHRA OVC025
FM241400 08010KT 5SM -RA BR OVC025

Example: see airport list